createdAt,value
2018-02-10T00:00:05.872Z,24.83
2018-02-10T00:02:34.424Z,31.40
2018-02-10T00:05:03.004Z,15.37
2018-02-10T00:07:31.701Z,19.43
2018-02-10T00:10:00.257Z,26.40
2018-02-10T00:12:29.560Z,62.93
2018-02-10T00:14:59.029Z,97.97
2018-02-10T00:17:27.591Z,35.40
2018-02-10T00:19:56.151Z,51.63
2018-02-10T00:22:35.815Z,50.87
2018-02-10T00:25:04.369Z,23.10
2018-02-10T00:27:32.913Z,17.93
2018-02-10T00:30:02.380Z,19.70
2018-02-10T00:32:30.934Z,26.03
2018-02-10T00:34:59.499Z,27.83
2018-02-10T00:37:28.872Z,32.10
2018-02-10T00:39:57.430Z,20.80
2018-02-10T00:42:25.993Z,27.37
2018-02-10T00:44:54.895Z,22.87
2018-02-10T00:47:23.477Z,18.83
2018-02-10T00:49:52.027Z,21.47
2018-02-10T00:52:21.705Z,21.83
2018-02-10T00:54:50.332Z,24.27
2018-02-10T00:57:18.884Z,17.67
2018-02-10T00:59:47.693Z,20.73
2018-02-10T01:02:17.004Z,24.60
2018-02-10T01:04:45.553Z,28.07
2018-02-10T01:07:14.199Z,21.37
2018-02-10T01:09:42.753Z,67.33
2018-02-10T01:12:11.309Z,41.93
2018-02-10T01:14:39.926Z,42.13
2018-02-10T01:17:08.473Z,34.27
2018-02-10T01:19:37.017Z,31.07
2018-02-10T01:22:05.821Z,27.63
2018-02-10T01:24:34.368Z,27.50
2018-02-10T01:27:02.932Z,25.63
2018-02-10T01:29:32.313Z,28.90
2018-02-10T01:32:00.872Z,29.93
2018-02-10T01:34:30.177Z,24.63
2018-02-10T01:36:59.069Z,25.73
2018-02-10T01:39:27.650Z,27.13
2018-02-10T01:41:56.210Z,27.50
2018-02-10T01:44:25.020Z,25.97
2018-02-10T01:46:53.616Z,37.70
2018-02-10T01:49:22.172Z,29.73
2018-02-10T01:51:51.073Z,27.93
2018-02-10T01:54:19.618Z,37.43
2018-02-10T01:56:48.166Z,45.97
2018-02-10T01:59:16.769Z,40.73
2018-02-10T02:01:46.081Z,41.63
2018-02-10T02:04:14.635Z,34.83
2018-02-10T02:06:43.337Z,35.63
2018-02-10T02:09:12.653Z,33.43
2018-02-10T02:11:41.201Z,31.43
2018-02-10T02:14:09.826Z,30.73
2018-02-10T02:16:38.378Z,35.50
2018-02-10T02:19:07.748Z,44.83
2018-02-10T02:21:36.444Z,45.30
2018-02-10T02:24:05.025Z,46.97
2018-02-10T02:26:33.577Z,49.60
2018-02-10T02:29:02.283Z,46.93
2018-02-10T02:31:30.837Z,41.53
2018-02-10T02:33:59.396Z,46.03
2018-02-10T02:36:28.954Z,45.37
2018-02-10T02:38:57.509Z,46.27
2018-02-10T02:41:26.054Z,49.40
2018-02-10T02:43:54.917Z,67.57
2018-02-10T02:46:23.473Z,48.17
2018-02-10T02:48:52.026Z,59.63
2018-02-10T02:51:20.971Z,66.27
2018-02-10T02:53:49.526Z,53.87
2018-02-10T02:56:18.087Z,49.93
2018-02-10T02:58:46.714Z,56.50
2018-02-10T03:01:15.265Z,60.23
2018-02-10T03:03:43.814Z,63.87
2018-02-10T03:06:13.292Z,60.23
2018-02-10T03:08:41.853Z,55.37
2018-02-10T03:11:10.401Z,47.27
2018-02-10T03:13:39.868Z,48.10
2018-02-10T03:16:08.467Z,42.77
2018-02-10T03:18:37.029Z,41.83
2018-02-10T03:21:05.803Z,47.57
2018-02-10T03:23:34.357Z,46.73
2018-02-10T03:26:02.907Z,55.53
2018-02-10T03:28:32.381Z,73.13
2018-02-10T03:31:00.932Z,45.43
2018-02-10T03:33:29.493Z,39.63
2018-02-10T03:35:59.053Z,41.10
2018-02-10T03:38:27.614Z,36.07
2018-02-10T03:40:56.164Z,34.27
2018-02-10T03:43:25.641Z,27.00
2018-02-10T03:45:54.209Z,30.20
2018-02-10T03:48:22.765Z,31.67
2018-02-10T03:50:51.573Z,28.23
2018-02-10T03:53:20.125Z,32.43
2018-02-10T03:55:48.672Z,27.53
2018-02-10T03:58:18.784Z,25.57
2018-02-10T04:00:47.358Z,28.17
2018-02-10T04:03:15.918Z,25.43
2018-02-10T04:05:44.529Z,35.53
2018-02-10T04:08:13.093Z,34.57
2018-02-10T04:10:41.648Z,65.27
2018-02-10T04:13:10.371Z,41.07
2018-02-10T04:15:38.924Z,28.33
2018-02-10T04:18:07.474Z,33.07
2018-02-10T04:20:36.836Z,31.47
2018-02-10T04:23:05.388Z,39.27
2018-02-10T04:25:33.952Z,40.30
2018-02-10T04:28:03.505Z,41.90
2018-02-10T04:30:32.070Z,39.47
2018-02-10T04:33:00.628Z,44.87
2018-02-10T04:35:29.996Z,53.60
2018-02-10T04:37:58.558Z,75.37
2018-02-10T04:40:27.110Z,56.70
2018-02-10T04:42:55.832Z,38.87
2018-02-10T04:45:24.394Z,32.37
2018-02-10T04:47:52.955Z,67.03
2018-02-10T04:50:21.649Z,37.90
2018-02-10T04:52:50.198Z,29.60
2018-02-10T04:55:19.526Z,37.10
2018-02-10T04:57:48.232Z,38.30
2018-02-10T05:00:16.784Z,43.23
2018-02-10T05:02:46.103Z,64.93
2018-02-10T05:05:14.716Z,30.73
2018-02-10T05:07:43.268Z,40.63
2018-02-10T05:10:11.825Z,47.17
2018-02-10T05:12:41.205Z,36.27
2018-02-10T05:15:09.763Z,34.93
2018-02-10T05:17:38.325Z,33.60
2018-02-10T05:20:06.927Z,36.43
2018-02-10T05:22:35.485Z,39.33
2018-02-10T05:25:04.056Z,37.83
2018-02-10T05:27:32.884Z,44.73
2018-02-10T05:30:01.439Z,38.90
2018-02-10T05:32:29.986Z,46.77
2018-02-10T05:34:58.844Z,34.80
2018-02-10T05:37:27.396Z,62.13
2018-02-10T05:39:56.349Z,55.20
2018-02-10T05:42:25.921Z,44.37
2018-02-10T05:44:54.473Z,42.93
2018-02-10T05:47:23.036Z,42.97
2018-02-10T05:49:52.692Z,44.47
2018-02-10T05:52:21.249Z,36.97
2018-02-10T05:54:49.812Z,37.27
2018-02-10T05:57:19.370Z,35.57
2018-02-10T05:59:47.920Z,47.90
2018-02-10T06:02:16.474Z,42.47
2018-02-10T06:04:45.896Z,43.33
2018-02-10T06:07:14.461Z,50.60
2018-02-10T06:09:43.780Z,50.13
2018-02-10T06:12:12.613Z,61.57
2018-02-10T06:14:41.164Z,61.97
2018-02-10T06:17:09.713Z,65.47
2018-02-10T06:19:39.087Z,71.17
2018-02-10T06:22:07.641Z,64.10
2018-02-10T06:24:36.184Z,65.93
2018-02-10T06:27:05.717Z,62.37
2018-02-10T06:29:34.271Z,61.40
2018-02-10T06:32:03.608Z,59.60
2018-02-10T06:34:32.427Z,62.50
2018-02-10T06:37:00.985Z,53.47
2018-02-10T06:39:29.550Z,64.73
2018-02-10T06:41:58.168Z,55.37
2018-02-10T06:44:26.730Z,49.87
2018-02-10T06:46:55.287Z,66.40
2018-02-10T06:49:24.656Z,42.83
2018-02-10T06:51:53.203Z,67.97
2018-02-10T06:54:21.756Z,65.93
2018-02-10T06:56:51.284Z,63.07
2018-02-10T06:59:19.849Z,73.27
2018-02-10T07:01:48.407Z,106.33
2018-02-10T07:04:17.234Z,63.07
2018-02-10T07:06:45.796Z,76.67
2018-02-10T07:09:14.344Z,67.73
2018-02-10T07:11:43.901Z,55.77
2018-02-10T07:14:13.379Z,59.80
2018-02-10T07:16:41.945Z,53.40
2018-02-10T07:19:11.321Z,90.30
2018-02-10T07:21:40.669Z,67.30
2018-02-10T07:24:09.228Z,78.97
2018-02-10T07:26:38.693Z,62.17
2018-02-10T07:29:07.252Z,73.37
2018-02-10T07:31:35.810Z,49.27
2018-02-10T07:34:05.176Z,48.13
2018-02-10T07:36:33.737Z,37.80
2018-02-10T07:39:02.288Z,43.30
2018-02-10T07:41:31.004Z,44.13
2018-02-10T07:43:59.560Z,48.13
2018-02-10T07:48:15.238Z,50.83
2018-02-10T07:50:43.792Z,44.27
2018-02-10T07:53:12.349Z,54.57
2018-02-10T07:55:40.962Z,48.73
2018-02-10T07:58:11.080Z,49.13
2018-02-10T08:00:39.640Z,42.40
2018-02-10T08:03:08.628Z,45.87
2018-02-10T08:05:37.197Z,49.97
2018-02-10T08:08:05.747Z,46.33
2018-02-10T08:10:34.585Z,62.37
2018-02-10T08:13:03.168Z,63.23
2018-02-10T08:15:31.733Z,426.43
2018-02-10T08:18:00.743Z,185.13
2018-02-10T08:20:29.300Z,164.87
2018-02-10T08:22:58.206Z,112.57
2018-02-10T08:25:27.315Z,105.23
2018-02-10T08:27:55.869Z,82.90
2018-02-10T08:30:24.429Z,45.20
2018-02-10T08:32:53.072Z,39.03
2018-02-10T08:35:21.643Z,102.43
2018-02-10T08:37:50.232Z,51.90
2018-02-10T08:40:18.828Z,35.37
2018-02-10T08:42:47.395Z,42.97
2018-02-10T08:45:16.276Z,35.27
2018-02-10T08:47:44.975Z,31.60
2018-02-10T08:50:13.531Z,30.57
2018-02-10T08:52:42.088Z,48.17
2018-02-10T08:55:10.692Z,35.53
2018-02-10T08:57:39.257Z,32.33
2018-02-10T09:00:08.610Z,24.73
2018-02-10T09:02:37.312Z,27.87
2018-02-10T09:05:05.874Z,26.57
2018-02-10T09:07:34.429Z,21.73
2018-02-10T09:10:03.244Z,21.00
2018-02-10T09:12:32.566Z,24.93
2018-02-10T09:15:01.158Z,26.53
2018-02-10T09:17:30.641Z,52.10
2018-02-10T09:19:59.198Z,23.97
2018-02-10T09:22:27.788Z,26.67
2018-02-10T09:24:56.587Z,28.23
2018-02-10T09:27:25.135Z,34.03
2018-02-10T09:29:53.708Z,18.50
2018-02-10T09:32:23.175Z,19.03
2018-02-10T09:34:51.742Z,23.93
2018-02-10T09:37:20.296Z,23.00
2018-02-10T09:39:49.114Z,24.30
2018-02-10T09:42:17.668Z,26.20
2018-02-10T09:44:46.244Z,25.73
2018-02-10T09:47:14.838Z,30.43
2018-02-10T09:49:44.170Z,24.10
2018-02-10T09:52:12.732Z,25.43
2018-02-10T09:54:41.386Z,34.23
2018-02-10T09:57:09.941Z,44.70
2018-02-10T09:59:38.496Z,20.97
2018-02-10T10:02:07.192Z,20.80
2018-02-10T10:04:35.745Z,24.07
2018-02-10T10:07:04.308Z,29.33
2018-02-10T10:09:33.675Z,173.30
2018-02-10T10:12:02.233Z,271.77
2018-02-10T10:14:31.552Z,35.13
2018-02-10T10:17:00.245Z,33.13
2018-02-10T10:19:29.014Z,25.23
2018-02-10T10:21:57.569Z,27.60
2018-02-10T10:24:26.548Z,52.77
2018-02-10T10:26:55.268Z,31.10
2018-02-10T10:29:23.955Z,75.10
2018-02-10T10:31:52.849Z,45.77
2018-02-10T10:34:21.535Z,36.17
2018-02-10T10:36:50.225Z,34.60
2018-02-10T10:39:19.155Z,32.13
2018-02-10T10:41:48.517Z,33.50
2018-02-10T10:44:17.100Z,36.03
2018-02-10T10:46:45.886Z,33.33
2018-02-10T10:49:14.670Z,37.83
2018-02-10T10:51:43.320Z,42.67
2018-02-10T10:54:12.043Z,37.50
2018-02-10T10:56:40.728Z,41.93
2018-02-10T10:59:09.414Z,37.40
2018-02-10T11:01:38.111Z,36.63
2018-02-10T11:04:17.763Z,37.50
2018-02-10T11:06:46.473Z,41.43
2018-02-10T11:09:15.797Z,44.77
2018-02-10T11:11:44.353Z,42.00
2018-02-10T11:14:13.721Z,48.07
2018-02-10T11:16:42.304Z,72.10
2018-02-10T11:19:35.431Z,68.00
2018-02-10T11:22:03.996Z,71.07
2018-02-10T11:24:33.321Z,77.03
2018-02-10T11:27:02.337Z,59.30
2018-02-10T11:29:30.893Z,64.47
2018-02-10T11:31:59.444Z,48.03
2018-02-10T11:34:29.012Z,42.23
2018-02-10T11:36:57.596Z,47.13
2018-02-10T11:39:26.147Z,36.63
2018-02-10T11:41:54.780Z,71.43
2018-02-10T11:44:23.346Z,42.47
2018-02-10T11:46:51.940Z,39.93
2018-02-10T11:49:20.713Z,207.83
2018-02-10T11:51:49.332Z,57.03
2018-02-10T11:54:17.884Z,44.40
2018-02-10T11:56:46.869Z,34.67
2018-02-10T11:59:15.417Z,40.33
2018-02-10T12:01:43.999Z,39.40
2018-02-10T12:04:12.912Z,39.27
2018-02-10T12:06:41.469Z,45.90
2018-02-10T12:09:10.785Z,39.73
2018-02-10T12:11:39.704Z,40.07
2018-02-10T12:14:08.256Z,40.37
2018-02-10T12:16:36.812Z,40.57
2018-02-10T12:19:06.280Z,41.13
2018-02-10T12:21:34.881Z,38.60
2018-02-10T12:24:03.432Z,40.87
2018-02-10T12:26:32.926Z,44.27
2018-02-10T12:29:01.536Z,42.77
2018-02-10T12:31:30.864Z,44.43
2018-02-10T12:34:00.237Z,42.47
2018-02-10T12:36:28.802Z,43.87
2018-02-10T12:38:57.392Z,45.13
2018-02-10T12:41:26.168Z,49.40
2018-02-10T12:43:54.720Z,44.67
2018-02-10T12:46:23.276Z,48.40
2018-02-10T12:51:54.204Z,50.33
2018-02-10T12:54:22.990Z,51.87
2018-02-10T12:56:51.572Z,55.20
2018-02-10T12:59:20.120Z,50.53
2018-02-10T13:01:48.733Z,50.30
2018-02-10T13:04:17.280Z,49.30
2018-02-10T13:06:45.836Z,59.83
2018-02-10T13:09:15.304Z,63.20
2018-02-10T13:11:43.855Z,50.77
2018-02-10T13:14:12.403Z,51.67
2018-02-10T13:16:41.280Z,56.13
2018-02-10T13:19:09.841Z,48.97
2018-02-10T13:21:38.398Z,50.07
2018-02-10T13:24:07.012Z,52.30
2018-02-10T13:26:35.568Z,53.67
2018-02-10T13:29:04.154Z,50.83
2018-02-10T13:31:33.036Z,53.53
2018-02-10T13:34:01.585Z,55.47
2018-02-10T13:36:30.132Z,49.37
2018-02-10T13:38:58.920Z,47.50
2018-02-10T13:41:27.483Z,48.63
2018-02-10T13:43:56.044Z,47.83
2018-02-10T13:46:25.504Z,50.87
2018-02-10T13:48:54.071Z,48.87
2018-02-10T13:51:22.625Z,53.30
2018-02-10T13:53:51.234Z,52.50
2018-02-10T13:56:19.782Z,51.83
2018-02-10T13:58:48.332Z,50.67
2018-02-10T14:01:16.937Z,53.10
2018-02-10T14:03:46.251Z,58.80
2018-02-10T14:06:14.800Z,62.80
2018-02-10T14:08:43.665Z,58.20
2018-02-10T14:11:12.223Z,57.30
2018-02-10T14:13:40.805Z,53.00
2018-02-10T14:16:09.416Z,48.13
2018-02-10T14:18:37.995Z,55.63
2018-02-10T14:21:06.546Z,57.33
2018-02-10T14:23:35.463Z,71.57
2018-02-10T14:26:04.024Z,104.03
2018-02-10T14:28:32.581Z,137.50
2018-02-10T14:31:02.046Z,118.73
2018-02-10T14:33:30.600Z,93.40
2018-02-10T14:35:59.149Z,55.27
2018-02-10T14:38:28.517Z,44.30
2018-02-10T14:40:57.084Z,38.30
2018-02-10T14:43:25.636Z,39.47
2018-02-10T14:45:54.231Z,36.37
2018-02-10T14:48:22.786Z,42.47
2018-02-10T14:50:52.100Z,49.03
2018-02-10T14:53:21.568Z,38.03
2018-02-10T14:55:50.126Z,35.97
2018-02-10T14:58:18.676Z,39.00
2018-02-10T15:00:47.272Z,53.50
2018-02-10T15:03:15.824Z,46.90
2018-02-10T15:05:45.144Z,45.43
2018-02-10T15:08:13.949Z,65.37
2018-02-10T15:10:42.496Z,58.87
2018-02-10T15:13:12.037Z,65.70
2018-02-10T15:15:40.761Z,71.63
2018-02-10T15:18:09.328Z,87.10
2018-02-10T15:20:37.889Z,76.63
2018-02-10T15:23:06.489Z,106.97
2018-02-10T15:25:35.077Z,117.97
2018-02-10T15:28:03.644Z,104.00
2018-02-10T15:30:50.265Z,57.97
2018-02-10T15:33:36.566Z,96.40
2018-02-10T15:36:05.535Z,102.03
2018-02-10T15:38:34.238Z,124.57
2018-02-10T15:41:02.893Z,100.20
2018-02-10T15:43:31.512Z,71.97
2018-02-10T15:46:00.155Z,149.93
2018-02-10T15:48:28.882Z,40.13
2018-02-10T15:50:57.939Z,62.87
2018-02-10T15:53:26.560Z,46.53
2018-02-10T15:55:55.251Z,127.63
2018-02-10T15:58:24.089Z,102.00
2018-02-10T16:00:53.541Z,50.93
2018-02-10T16:03:23.073Z,47.70
2018-02-10T16:05:51.993Z,222.23
2018-02-10T16:08:21.312Z,38.37
2018-02-10T16:10:49.869Z,37.37
2018-02-10T16:13:19.422Z,47.23
2018-02-10T16:15:47.968Z,44.77
2018-02-10T16:18:17.288Z,63.03
2018-02-10T16:20:45.899Z,37.50
2018-02-10T16:23:14.448Z,35.07
2018-02-10T16:25:43.066Z,24.17
2018-02-10T16:28:12.100Z,42.70
2018-02-10T16:30:41.423Z,25.63
2018-02-10T16:33:10.025Z,25.07
2018-02-10T16:35:38.622Z,25.57
2018-02-10T16:38:07.168Z,34.03
2018-02-10T16:40:35.744Z,32.43
2018-02-10T16:43:05.284Z,36.23
2018-02-10T16:45:33.830Z,26.30
2018-02-10T16:48:03.145Z,29.07
2018-02-10T16:50:32.789Z,25.40
2018-02-10T16:53:01.341Z,22.10
2018-02-10T16:55:29.895Z,22.80
2018-02-10T16:57:59.426Z,20.93
2018-02-10T17:00:27.975Z,27.83
2018-02-10T17:02:57.580Z,23.30
2018-02-10T17:05:26.268Z,24.50
2018-02-10T17:07:54.816Z,19.03
2018-02-10T17:10:24.132Z,25.30
2018-02-10T17:12:53.680Z,20.60
2018-02-10T17:15:22.228Z,22.37
2018-02-10T17:17:50.774Z,21.53
2018-02-10T17:20:19.485Z,25.77
2018-02-10T17:22:48.811Z,22.80
2018-02-10T17:25:17.375Z,27.17
2018-02-10T17:27:46.031Z,24.90
2018-02-10T17:30:15.564Z,25.37
2018-02-10T17:32:45.615Z,23.00
2018-02-10T17:35:14.410Z,27.00
2018-02-10T17:37:42.989Z,29.70
2018-02-10T17:40:11.541Z,28.90
2018-02-10T17:42:40.138Z,27.57
2018-02-10T17:45:08.692Z,44.43
2018-02-10T17:47:37.992Z,50.23
2018-02-10T17:50:07.453Z,61.87
2018-02-10T17:52:36.005Z,148.23
2018-02-10T17:55:04.568Z,144.47
2018-02-10T17:57:33.944Z,224.00
2018-02-10T18:00:02.505Z,147.73
2018-02-10T18:02:31.068Z,104.13
2018-02-10T18:04:59.810Z,107.07
2018-02-10T18:07:29.124Z,123.77
2018-02-10T18:09:58.439Z,108.27
2018-02-10T18:12:27.260Z,132.30
2018-02-10T18:14:55.808Z,113.57
2018-02-10T18:17:24.372Z,134.53
2018-02-10T18:19:54.034Z,76.77
2018-02-10T18:22:22.586Z,95.30
2018-02-10T18:24:51.140Z,52.97
2018-02-10T18:27:20.789Z,56.90
2018-02-10T18:29:49.333Z,98.90
2018-02-10T18:32:18.652Z,150.23
2018-02-10T18:34:47.580Z,249.77
2018-02-10T18:37:16.129Z,80.87
2018-02-10T18:39:44.676Z,39.27
2018-02-10T18:42:13.636Z,37.83
2018-02-10T18:44:42.184Z,45.27
2018-02-10T18:47:10.737Z,40.77
2018-02-10T18:49:39.440Z,38.03
2018-02-10T18:52:08.760Z,33.40
2018-02-10T18:54:37.312Z,30.30
2018-02-10T18:57:06.772Z,18.93
2018-02-10T18:59:35.328Z,22.93
2018-02-10T19:02:03.883Z,20.70
2018-02-10T19:04:33.454Z,19.77
2018-02-10T19:07:02.005Z,21.50
2018-02-10T19:09:30.575Z,16.90
2018-02-10T19:11:59.468Z,18.77
2018-02-10T19:14:28.049Z,19.03
2018-02-10T19:16:56.583Z,19.37
2018-02-10T19:19:25.184Z,16.53
2018-02-10T19:21:53.737Z,17.00
2018-02-10T19:24:22.289Z,17.13
2018-02-10T19:26:50.884Z,15.57
2018-02-10T19:29:19.436Z,16.63
2018-02-10T19:31:48.752Z,17.13
2018-02-10T19:34:23.412Z,13.53
2018-02-10T19:36:51.969Z,16.73
2018-02-10T19:39:20.522Z,15.53
2018-02-10T19:41:50.080Z,68.27
2018-02-10T19:44:18.641Z,94.23
2018-02-10T19:46:47.352Z,66.07
2018-02-10T19:49:16.281Z,38.47
2018-02-10T19:51:45.601Z,20.53
2018-02-10T19:54:14.151Z,22.70
2018-02-10T19:56:43.020Z,19.93
2018-02-10T19:59:11.579Z,20.90
2018-02-10T20:01:40.136Z,14.23
2018-02-10T20:04:08.833Z,14.97
2018-02-10T20:06:37.394Z,14.50
2018-02-10T20:09:06.733Z,16.47
2018-02-10T20:11:35.539Z,14.80
2018-02-10T20:14:04.092Z,20.10
2018-02-10T20:16:32.645Z,31.10
2018-02-10T20:19:02.029Z,51.30
2018-02-10T20:21:30.589Z,27.50
2018-02-10T20:23:59.178Z,22.13
2018-02-10T20:26:27.772Z,22.97
2018-02-10T20:28:56.357Z,24.47
2018-02-10T20:31:24.923Z,17.57
2018-02-10T20:33:53.519Z,19.30
2018-02-10T20:36:22.064Z,18.27
2018-02-10T20:38:50.609Z,18.30
2018-02-10T20:41:19.986Z,19.43
2018-02-10T20:43:48.548Z,25.97
2018-02-10T20:46:17.087Z,25.10
2018-02-10T20:48:46.644Z,22.20
2018-02-10T20:51:15.197Z,18.90
2018-02-10T20:53:43.757Z,15.20
2018-02-10T20:56:13.269Z,15.37
2018-02-10T20:58:41.820Z,20.33
2018-02-10T21:01:10.381Z,10.10
2018-02-10T21:03:39.372Z,12.17
2018-02-10T21:06:07.923Z,12.87
2018-02-10T21:08:36.472Z,15.03
2018-02-10T21:11:05.840Z,7.60
2018-02-10T21:13:34.376Z,10.23
2018-02-10T21:16:03.712Z,10.70
2018-02-10T21:18:39.724Z,13.77
2018-02-10T21:21:09.233Z,11.17
2018-02-10T21:23:38.549Z,9.43
2018-02-10T21:26:07.140Z,12.90
2018-02-10T21:28:35.693Z,17.70
2018-02-10T21:31:05.050Z,20.77
2018-02-10T21:33:33.740Z,12.90
2018-02-10T21:36:02.288Z,13.50
2018-02-10T21:38:30.828Z,23.17
2018-02-10T21:40:59.548Z,21.93
2018-02-10T21:43:28.092Z,16.30
2018-02-10T21:45:56.640Z,22.73
2018-02-10T21:48:25.517Z,18.50
2018-02-10T21:50:54.053Z,16.53
2018-02-10T21:53:22.595Z,9.27
2018-02-10T21:55:51.298Z,6.33
2018-02-10T21:58:19.844Z,5.53
2018-02-10T22:00:48.384Z,7.40
2018-02-10T22:03:17.116Z,5.70
2018-02-10T22:05:45.664Z,7.83
2018-02-10T22:08:14.984Z,5.70
2018-02-10T22:10:44.333Z,7.63
2018-02-10T22:13:13.652Z,4.90
2018-02-10T22:15:42.201Z,5.20
2018-02-10T22:18:11.106Z,5.53
2018-02-10T22:20:39.644Z,4.83
2018-02-10T22:23:08.993Z,6.80
2018-02-10T22:25:37.688Z,5.10
2018-02-10T22:28:06.227Z,5.70
2018-02-10T22:30:34.801Z,6.47
2018-02-10T22:33:03.388Z,4.30
2018-02-10T22:35:31.940Z,5.57
2018-02-10T22:38:00.491Z,5.67
2018-02-10T22:40:29.089Z,5.03
2018-02-10T22:42:57.637Z,3.70
2018-02-10T22:45:26.172Z,3.23
2018-02-10T22:47:55.034Z,5.43
2018-02-10T22:50:23.571Z,4.00
2018-02-10T22:52:52.109Z,3.30
2018-02-10T22:55:20.700Z,4.13
2018-02-10T22:57:49.256Z,3.00
2018-02-10T23:00:17.829Z,4.63
2018-02-10T23:02:46.428Z,3.43
2018-02-10T23:05:14.964Z,4.83
2018-02-10T23:07:44.268Z,7.03
2018-02-10T23:10:13.721Z,7.97
2018-02-10T23:12:42.259Z,7.07
2018-02-10T23:15:10.805Z,8.77
2018-02-10T23:17:39.564Z,5.07
2018-02-10T23:20:08.115Z,5.23
2018-02-10T23:22:36.655Z,4.93
2018-02-10T23:25:05.540Z,6.63
2018-02-10T23:27:34.081Z,4.87
2018-02-10T23:30:02.620Z,6.67
2018-02-10T23:32:32.869Z,6.63
2018-02-10T23:35:01.412Z,5.97
2018-02-10T23:37:29.960Z,5.63
2018-02-10T23:39:58.885Z,7.03
2018-02-10T23:42:27.443Z,6.37
2018-02-10T23:44:55.988Z,7.50
2018-02-10T23:47:24.592Z,8.63
2018-02-10T23:49:53.132Z,7.33
2018-02-10T23:52:21.680Z,7.27
2018-02-10T23:54:50.565Z,6.60
2018-02-10T23:57:19.104Z,8.13
2018-02-10T23:59:47.644Z,8.70
